sensor_id;sensor_type;location;lat;lon;timestamp;temperature;humidity
46123;DHT22;31856;-35.404;149.120;2023-03-25T03:29:44;18.20;85.00
46123;DHT22;31856;-35.404;149.120;2023-03-25T03:32:16;18.20;85.10
46123;DHT22;31856;-35.404;149.120;2023-03-25T03:35:08;18.10;84.00
46123;DHT22;31856;-35.404;149.120;2023-03-25T03:37:37;18.10;84.40
46123;DHT22;31856;-35.404;149.120;2023-03-25T03:40:11;18.00;84.40
46123;DHT22;31856;-35.404;149.120;2023-03-25T03:42:53;18.00;84.40
46123;DHT22;31856;-35.404;149.120;2023-03-25T03:45:33;18.00;84.50
46123;DHT22;31856;-35.404;149.120;2023-03-25T03:48:04;18.00;85.00
46123;DHT22;31856;-35.404;149.120;2023-03-25T03:50:37;17.90;85.20
46123;DHT22;31856;-35.404;149.120;2023-03-25T03:55:51;17.90;85.00
46123;DHT22;31856;-35.404;149.120;2023-03-25T03:58:23;17.90;85.40
46123;DHT22;31856;-35.404;149.120;2023-03-25T04:01:01;17.80;85.50
46123;DHT22;31856;-35.404;149.120;2023-03-25T04:03:36;17.80;85.50
46123;DHT22;31856;-35.404;149.120;2023-03-25T04:06:10;17.80;85.60
46123;DHT22;31856;-35.404;149.120;2023-03-25T04:08:46;17.80;85.40
46123;DHT22;31856;-35.404;149.120;2023-03-25T04:11:21;17.80;85.30
46123;DHT22;31856;-35.404;149.120;2023-03-25T04:13:52;17.80;85.80
46123;DHT22;31856;-35.404;149.120;2023-03-25T04:16:23;17.80;85.80
46123;DHT22;31856;-35.404;149.120;2023-03-25T04:18:55;17.90;85.90
46123;DHT22;31856;-35.404;149.120;2023-03-25T04:21:25;17.90;85.90
46123;DHT22;31856;-35.404;149.120;2023-03-25T04:24:00;17.90;86.00
46123;DHT22;31856;-35.404;149.120;2023-03-25T04:26:31;17.90;85.40
46123;DHT22;31856;-35.404;149.120;2023-03-25T04:29:01;17.90;85.00
46123;DHT22;31856;-35.404;149.120;2023-03-25T04:31:32;18.00;84.80
46123;DHT22;31856;-35.404;149.120;2023-03-25T04:34:03;18.00;84.80
46123;DHT22;31856;-35.404;149.120;2023-03-25T04:36:32;18.00;84.90
46123;DHT22;31856;-35.404;149.120;2023-03-25T04:39:06;18.00;85.10
46123;DHT22;31856;-35.404;149.120;2023-03-25T04:41:37;18.00;85.20
46123;DHT22;31856;-35.404;149.120;2023-03-25T04:44:07;18.10;85.10
46123;DHT22;31856;-35.404;149.120;2023-03-25T04:46:36;18.10;84.60
46123;DHT22;31856;-35.404;149.120;2023-03-25T04:49:06;18.20;84.80
46123;DHT22;31856;-35.404;149.120;2023-03-25T04:51:41;18.20;85.00
46123;DHT22;31856;-35.404;149.120;2023-03-25T04:54:13;18.40;85.00
46123;DHT22;31856;-35.404;149.120;2023-03-25T04:56:44;18.50;85.10
46123;DHT22;31856;-35.404;149.120;2023-03-25T04:59:16;18.50;84.90
46123;DHT22;31856;-35.404;149.120;2023-03-25T05:01:45;18.60;84.60
46123;DHT22;31856;-35.404;149.120;2023-03-25T05:04:16;18.60;84.50
46123;DHT22;31856;-35.404;149.120;2023-03-25T05:06:46;18.70;84.90
46123;DHT22;31856;-35.404;149.120;2023-03-25T05:09:18;18.80;85.60
46123;DHT22;31856;-35.404;149.120;2023-03-25T05:11:52;18.80;85.20
46123;DHT22;31856;-35.404;149.120;2023-03-25T05:14:22;18.80;84.80
46123;DHT22;31856;-35.404;149.120;2023-03-25T05:16:51;18.90;84.60
46123;DHT22;31856;-35.404;149.120;2023-03-25T05:19:21;19.00;84.10
46123;DHT22;31856;-35.404;149.120;2023-03-25T05:21:50;19.10;84.00
46123;DHT22;31856;-35.404;149.120;2023-03-25T05:24:19;19.30;83.70
46123;DHT22;31856;-35.404;149.120;2023-03-25T05:26:49;19.30;83.20
46123;DHT22;31856;-35.404;149.120;2023-03-25T05:29:24;19.20;83.00
46123;DHT22;31856;-35.404;149.120;2023-03-25T05:31:53;19.20;82.60
46123;DHT22;31856;-35.404;149.120;2023-03-25T05:34:23;19.10;81.80
46123;DHT22;31856;-35.404;149.120;2023-03-25T05:36:53;19.00;81.80
46123;DHT22;31856;-35.404;149.120;2023-03-25T05:39:23;18.90;81.30
46123;DHT22;31856;-35.404;149.120;2023-03-25T05:41:53;18.80;80.60
46123;DHT22;31856;-35.404;149.120;2023-03-25T05:44:23;18.70;81.20
46123;DHT22;31856;-35.404;149.120;2023-03-25T05:46:53;18.70;81.50
46123;DHT22;31856;-35.404;149.120;2023-03-25T05:49:25;18.60;81.70
46123;DHT22;31856;-35.404;149.120;2023-03-25T05:51:55;18.60;82.20
46123;DHT22;31856;-35.404;149.120;2023-03-25T05:54:24;18.50;82.10
46123;DHT22;31856;-35.404;149.120;2023-03-25T05:56:53;18.50;82.40
46123;DHT22;31856;-35.404;149.120;2023-03-25T05:59:24;18.50;82.30
46123;DHT22;31856;-35.404;149.120;2023-03-25T06:01:54;18.40;82.10
46123;DHT22;31856;-35.404;149.120;2023-03-25T06:04:27;18.40;82.30
46123;DHT22;31856;-35.404;149.120;2023-03-25T06:06:57;18.30;82.20
46123;DHT22;31856;-35.404;149.120;2023-03-25T06:09:26;18.30;82.20
46123;DHT22;31856;-35.404;149.120;2023-03-25T06:11:59;18.20;82.70
46123;DHT22;31856;-35.404;149.120;2023-03-25T06:14:30;18.20;82.80
46123;DHT22;31856;-35.404;149.120;2023-03-25T06:17:00;18.20;82.80
46123;DHT22;31856;-35.404;149.120;2023-03-25T06:19:30;18.20;82.90
46123;DHT22;31856;-35.404;149.120;2023-03-25T06:45:26;18.30;81.40
46123;DHT22;31856;-35.404;149.120;2023-03-25T06:47:57;18.20;81.80
46123;DHT22;31856;-35.404;149.120;2023-03-25T06:50:26;18.20;81.60
46123;DHT22;31856;-35.404;149.120;2023-03-25T06:52:57;18.20;80.80
46123;DHT22;31856;-35.404;149.120;2023-03-25T06:55:27;18.20;80.90
46123;DHT22;31856;-35.404;149.120;2023-03-25T06:57:57;18.20;80.70
46123;DHT22;31856;-35.404;149.120;2023-03-25T07:00:27;18.10;80.60
46123;DHT22;31856;-35.404;149.120;2023-03-25T07:02:58;18.10;80.30
46123;DHT22;31856;-35.404;149.120;2023-03-25T07:05:29;18.10;80.30
46123;DHT22;31856;-35.404;149.120;2023-03-25T07:08:03;18.00;80.70
46123;DHT22;31856;-35.404;149.120;2023-03-25T07:10:33;18.00;80.90
46123;DHT22;31856;-35.404;149.120;2023-03-25T07:13:04;18.00;81.20
46123;DHT22;31856;-35.404;149.120;2023-03-25T07:15:36;17.90;81.20
46123;DHT22;31856;-35.404;149.120;2023-03-25T07:18:05;17.90;81.20
46123;DHT22;31856;-35.404;149.120;2023-03-25T07:20:35;17.90;81.30
46123;DHT22;31856;-35.404;149.120;2023-03-25T07:23:12;17.90;81.40
46123;DHT22;31856;-35.404;149.120;2023-03-25T07:25:41;17.80;81.60
46123;DHT22;31856;-35.404;149.120;2023-03-25T07:28:11;17.80;81.50
46123;DHT22;31856;-35.404;149.120;2023-03-25T07:30:43;17.80;81.90
46123;DHT22;31856;-35.404;149.120;2023-03-25T07:33:14;17.80;82.40
46123;DHT22;31856;-35.404;149.120;2023-03-25T07:35:45;17.80;82.40
46123;DHT22;31856;-35.404;149.120;2023-03-25T07:38:15;17.70;82.30
46123;DHT22;31856;-35.404;149.120;2023-03-25T07:40:45;17.70;82.50
46123;DHT22;31856;-35.404;149.120;2023-03-25T07:43:16;17.70;82.90
46123;DHT22;31856;-35.404;149.120;2023-03-25T07:45:46;17.60;82.80
46123;DHT22;31856;-35.404;149.120;2023-03-25T07:48:16;17.60;82.80
46123;DHT22;31856;-35.404;149.120;2023-03-25T07:50:45;17.60;82.70
46123;DHT22;31856;-35.404;149.120;2023-03-25T07:53:17;17.60;82.70
46123;DHT22;31856;-35.404;149.120;2023-03-25T07:55:47;17.60;82.80
46123;DHT22;31856;-35.404;149.120;2023-03-25T07:58:20;17.60;82.70
46123;DHT22;31856;-35.404;149.120;2023-03-25T08:00:49;17.60;82.60
46123;DHT22;31856;-35.404;149.120;2023-03-25T08:03:19;17.50;82.80
46123;DHT22;31856;-35.404;149.120;2023-03-25T08:05:49;17.50;83.20
46123;DHT22;31856;-35.404;149.120;2023-03-25T08:08:19;17.50;83.20
46123;DHT22;31856;-35.404;149.120;2023-03-25T08:10:50;17.50;83.50
46123;DHT22;31856;-35.404;149.120;2023-03-25T08:13:19;17.50;83.90
46123;DHT22;31856;-35.404;149.120;2023-03-25T08:15:49;17.50;83.60
46123;DHT22;31856;-35.404;149.120;2023-03-25T08:18:19;17.40;83.10
46123;DHT22;31856;-35.404;149.120;2023-03-25T08:20:49;17.40;82.90
46123;DHT22;31856;-35.404;149.120;2023-03-25T08:23:18;17.50;82.40
46123;DHT22;31856;-35.404;149.120;2023-03-25T08:25:49;17.40;82.10
46123;DHT22;31856;-35.404;149.120;2023-03-25T08:28:20;17.40;82.30
46123;DHT22;31856;-35.404;149.120;2023-03-25T08:30:52;17.40;82.30
46123;DHT22;31856;-35.404;149.120;2023-03-25T08:33:23;17.30;82.00
46123;DHT22;31856;-35.404;149.120;2023-03-25T09:14:07;17.20;82.90
46123;DHT22;31856;-35.404;149.120;2023-03-25T09:16:38;17.20;83.20
46123;DHT22;31856;-35.404;149.120;2023-03-25T09:19:08;17.20;83.00
46123;DHT22;31856;-35.404;149.120;2023-03-25T09:21:41;17.10;83.00
46123;DHT22;31856;-35.404;149.120;2023-03-25T09:24:11;17.20;83.20
46123;DHT22;31856;-35.404;149.120;2023-03-25T09:26:42;17.20;82.70
46123;DHT22;31856;-35.404;149.120;2023-03-25T09:29:11;17.10;82.40
46123;DHT22;31856;-35.404;149.120;2023-03-25T09:31:41;17.10;82.50
46123;DHT22;31856;-35.404;149.120;2023-03-25T09:34:10;17.10;82.50
46123;DHT22;31856;-35.404;149.120;2023-03-25T09:36:42;17.10;82.50
46123;DHT22;31856;-35.404;149.120;2023-03-25T09:39:13;17.10;82.80
46123;DHT22;31856;-35.404;149.120;2023-03-25T09:44:36;17.10;82.70
46123;DHT22;31856;-35.404;149.120;2023-03-25T09:47:08;17.00;82.70
46123;DHT22;31856;-35.404;149.120;2023-03-25T09:49:43;17.00;82.80
46123;DHT22;31856;-35.404;149.120;2023-03-25T09:52:17;17.00;82.70
46123;DHT22;31856;-35.404;149.120;2023-03-25T09:54:50;17.00;82.90
46123;DHT22;31856;-35.404;149.120;2023-03-25T09:57:22;17.00;83.00
46123;DHT22;31856;-35.404;149.120;2023-03-25T09:59:56;17.00;83.10
46123;DHT22;31856;-35.404;149.120;2023-03-25T10:02:41;17.00;83.30
46123;DHT22;31856;-35.404;149.120;2023-03-25T10:05:20;16.90;83.70
46123;DHT22;31856;-35.404;149.120;2023-03-25T10:08:00;16.90;83.90
46123;DHT22;31856;-35.404;149.120;2023-03-25T10:13:09;16.90;83.60
46123;DHT22;31856;-35.404;149.120;2023-03-25T10:21:02;16.90;83.50
46123;DHT22;31856;-35.404;149.120;2023-03-25T10:26:20;16.90;83.70
46123;DHT22;31856;-35.404;149.120;2023-03-25T10:28:55;16.90;83.90
46123;DHT22;31856;-35.404;149.120;2023-03-25T10:31:28;16.90;83.80
46123;DHT22;31856;-35.404;149.120;2023-03-25T10:34:10;16.90;83.90
46123;DHT22;31856;-35.404;149.120;2023-03-25T10:36:46;16.80;84.10
46123;DHT22;31856;-35.404;149.120;2023-03-25T10:39:18;16.80;84.20
46123;DHT22;31856;-35.404;149.120;2023-03-25T10:44:37;16.90;84.10
46123;DHT22;31856;-35.404;149.120;2023-03-25T10:47:07;16.90;83.80
46123;DHT22;31856;-35.404;149.120;2023-03-25T10:49:39;16.80;83.60
46123;DHT22;31856;-35.404;149.120;2023-03-25T10:52:10;16.80;83.80
46123;DHT22;31856;-35.404;149.120;2023-03-25T10:54:40;16.80;83.70
46123;DHT22;31856;-35.404;149.120;2023-03-25T10:57:16;16.80;83.80
46123;DHT22;31856;-35.404;149.120;2023-03-25T11:02:30;16.80;84.20
46123;DHT22;31856;-35.404;149.120;2023-03-25T11:05:02;16.80;84.40
46123;DHT22;31856;-35.404;149.120;2023-03-25T11:07:39;16.70;84.40
46123;DHT22;31856;-35.404;149.120;2023-03-25T13:57:43;16.40;85.00
46123;DHT22;31856;-35.404;149.120;2023-03-25T14:03:09;16.50;84.60
46123;DHT22;31856;-35.404;149.120;2023-03-25T14:16:27;16.40;84.20
46123;DHT22;31856;-35.404;149.120;2023-03-25T14:19:00;16.40;84.50
46123;DHT22;31856;-35.404;149.120;2023-03-25T14:21:33;16.40;84.70
46123;DHT22;31856;-35.404;149.120;2023-03-25T14:24:31;16.40;84.80
46123;DHT22;31856;-35.404;149.120;2023-03-25T14:34:45;16.40;84.70
46123;DHT22;31856;-35.404;149.120;2023-03-25T14:37:22;16.40;85.20
46123;DHT22;31856;-35.404;149.120;2023-03-25T14:39:58;16.40;85.50
46123;DHT22;31856;-35.404;149.120;2023-03-25T14:42:38;16.40;85.50
46123;DHT22;31856;-35.404;149.120;2023-03-25T14:47:57;16.40;85.50
46123;DHT22;31856;-35.404;149.120;2023-03-25T14:52:59;16.40;84.90
46123;DHT22;31856;-35.404;149.120;2023-03-25T14:55:41;16.40;84.60
46123;DHT22;31856;-35.404;149.120;2023-03-25T15:30:33;16.30;85.70
46123;DHT22;31856;-35.404;149.120;2023-03-25T15:35:55;16.30;85.70
46123;DHT22;31856;-35.404;149.120;2023-03-25T15:47:06;16.30;85.30
46123;DHT22;31856;-35.404;149.120;2023-03-25T15:54:40;16.30;85.10
46123;DHT22;31856;-35.404;149.120;2023-03-25T15:57:25;16.20;85.00
46123;DHT22;31856;-35.404;149.120;2023-03-25T16:02:47;16.20;85.00
46123;DHT22;31856;-35.404;149.120;2023-03-25T16:05:19;16.20;85.20
46123;DHT22;31856;-35.404;149.120;2023-03-25T16:07:50;16.20;85.00
46123;DHT22;31856;-35.404;149.120;2023-03-25T16:10:30;16.20;85.10
46123;DHT22;31856;-35.404;149.120;2023-03-25T16:13:03;16.10;85.20
46123;DHT22;31856;-35.404;149.120;2023-03-25T16:15:34;16.10;85.40
46123;DHT22;31856;-35.404;149.120;2023-03-25T16:18:05;16.10;85.80
46123;DHT22;31856;-35.404;149.120;2023-03-25T16:20:35;16.10;85.80
46123;DHT22;31856;-35.404;149.120;2023-03-25T16:23:05;16.10;86.00
46123;DHT22;31856;-35.404;149.120;2023-03-25T16:25:36;16.10;86.10
46123;DHT22;31856;-35.404;149.120;2023-03-25T16:28:13;16.00;86.30
46123;DHT22;31856;-35.404;149.120;2023-03-25T16:30:47;16.00;86.30
46123;DHT22;31856;-35.404;149.120;2023-03-25T16:33:18;16.00;86.20
46123;DHT22;31856;-35.404;149.120;2023-03-25T16:35:52;16.00;86.20
46123;DHT22;31856;-35.404;149.120;2023-03-25T16:38:22;16.00;86.40
46123;DHT22;31856;-35.404;149.120;2023-03-25T16:41:00;16.00;86.60
46123;DHT22;31856;-35.404;149.120;2023-03-25T16:43:30;15.90;86.60
46123;DHT22;31856;-35.404;149.120;2023-03-25T16:46:01;16.00;86.40
46123;DHT22;31856;-35.404;149.120;2023-03-25T16:48:46;16.00;86.30
46123;DHT22;31856;-35.404;149.120;2023-03-25T16:51:20;15.90;86.10
46123;DHT22;31856;-35.404;149.120;2023-03-25T16:53:53;16.00;86.10
46123;DHT22;31856;-35.404;149.120;2023-03-25T16:59:06;15.90;86.20
46123;DHT22;31856;-35.404;149.120;2023-03-25T17:01:37;15.90;86.40
46123;DHT22;31856;-35.404;149.120;2023-03-25T17:04:13;15.80;86.40
46123;DHT22;31856;-35.404;149.120;2023-03-25T17:06:45;15.80;86.50
46123;DHT22;31856;-35.404;149.120;2023-03-25T17:09:21;15.80;86.20
46123;DHT22;31856;-35.404;149.120;2023-03-25T17:11:52;15.90;86.20
46123;DHT22;31856;-35.404;149.120;2023-03-25T17:14:29;15.90;86.50
46123;DHT22;31856;-35.404;149.120;2023-03-25T17:17:24;15.80;86.60
46123;DHT22;31856;-35.404;149.120;2023-03-25T17:19:50;15.80;86.70
46123;DHT22;31856;-35.404;149.120;2023-03-25T17:22:38;15.80;86.60
46123;DHT22;31856;-35.404;149.120;2023-03-25T17:51:43;15.70;86.90
46123;DHT22;31856;-35.404;149.120;2023-03-25T17:54:13;15.70;86.90
46123;DHT22;31856;-35.404;149.120;2023-03-25T17:56:43;15.80;87.00
46123;DHT22;31856;-35.404;149.120;2023-03-25T17:59:16;15.70;87.00
46123;DHT22;31856;-35.404;149.120;2023-03-25T18:01:47;15.70;87.00
46123;DHT22;31856;-35.404;149.120;2023-03-25T18:04:18;15.70;87.20
46123;DHT22;31856;-35.404;149.120;2023-03-25T18:06:50;15.80;87.20
46123;DHT22;31856;-35.404;149.120;2023-03-25T18:09:20;15.80;87.30
46123;DHT22;31856;-35.404;149.120;2023-03-25T18:11:52;15.80;87.40
46123;DHT22;31856;-35.404;149.120;2023-03-25T18:14:22;15.80;87.40
46123;DHT22;31856;-35.404;149.120;2023-03-25T18:16:52;15.80;87.40
46123;DHT22;31856;-35.404;149.120;2023-03-25T18:19:24;15.80;87.40
46123;DHT22;31856;-35.404;149.120;2023-03-25T18:21:55;15.80;87.30
46123;DHT22;31856;-35.404;149.120;2023-03-25T18:24:33;15.80;87.40
46123;DHT22;31856;-35.404;149.120;2023-03-25T18:27:02;15.80;87.40
46123;DHT22;31856;-35.404;149.120;2023-03-25T18:29:32;15.80;87.30
46123;DHT22;31856;-35.404;149.120;2023-03-25T18:32:05;15.80;87.20
46123;DHT22;31856;-35.404;149.120;2023-03-25T18:34:36;15.80;87.30
46123;DHT22;31856;-35.404;149.120;2023-03-25T18:37:05;15.80;87.30
46123;DHT22;31856;-35.404;149.120;2023-03-25T18:39:36;15.80;87.30
46123;DHT22;31856;-35.404;149.120;2023-03-25T18:42:05;15.80;87.10
46123;DHT22;31856;-35.404;149.120;2023-03-25T18:44:35;15.80;87.00
46123;DHT22;31856;-35.404;149.120;2023-03-25T18:47:07;15.80;87.00
46123;DHT22;31856;-35.404;149.120;2023-03-25T20:00:48;15.70;87.80
46123;DHT22;31856;-35.404;149.120;2023-03-25T20:03:17;15.70;87.60
46123;DHT22;31856;-35.404;149.120;2023-03-25T20:05:55;15.70;87.60
46123;DHT22;31856;-35.404;149.120;2023-03-25T20:08:25;15.70;87.70
46123;DHT22;31856;-35.404;149.120;2023-03-25T20:10:54;15.70;87.70
46123;DHT22;31856;-35.404;149.120;2023-03-25T20:13:24;15.70;87.70
46123;DHT22;31856;-35.404;149.120;2023-03-25T20:15:54;15.70;87.50
46123;DHT22;31856;-35.404;149.120;2023-03-25T20:18:24;15.60;87.50
46123;DHT22;31856;-35.404;149.120;2023-03-25T20:20:53;15.60;87.50
46123;DHT22;31856;-35.404;149.120;2023-03-25T20:23:23;15.60;87.60
46123;DHT22;31856;-35.404;149.120;2023-03-25T20:25:52;15.60;87.70
46123;DHT22;31856;-35.404;149.120;2023-03-25T20:28:22;15.60;87.80
46123;DHT22;31856;-35.404;149.120;2023-03-25T20:30:51;15.60;88.00
46123;DHT22;31856;-35.404;149.120;2023-03-25T20:33:22;15.60;88.00
46123;DHT22;31856;-35.404;149.120;2023-03-25T20:35:52;15.60;88.00
46123;DHT22;31856;-35.404;149.120;2023-03-25T20:38:22;15.60;87.90
46123;DHT22;31856;-35.404;149.120;2023-03-25T20:40:52;15.60;88.00
46123;DHT22;31856;-35.404;149.120;2023-03-25T20:43:24;15.60;88.00
46123;DHT22;31856;-35.404;149.120;2023-03-25T20:45:54;15.60;88.10
46123;DHT22;31856;-35.404;149.120;2023-03-25T20:48:24;15.60;88.00
46123;DHT22;31856;-35.404;149.120;2023-03-25T20:50:59;15.60;88.00
46123;DHT22;31856;-35.404;149.120;2023-03-25T20:53:29;15.70;88.00
46123;DHT22;31856;-35.404;149.120;2023-03-25T20:55:59;15.70;88.00
46123;DHT22;31856;-35.404;149.120;2023-03-25T20:58:29;15.70;88.00
46123;DHT22;31856;-35.404;149.120;2023-03-25T21:00:58;15.70;87.80
46123;DHT22;31856;-35.404;149.120;2023-03-25T21:03:29;15.80;87.50
46123;DHT22;31856;-35.404;149.120;2023-03-25T21:05:59;15.70;87.40
46123;DHT22;31856;-35.404;149.120;2023-03-25T21:08:39;15.80;87.60
46123;DHT22;31856;-35.404;149.120;2023-03-25T21:11:10;15.80;87.60
46123;DHT22;31856;-35.404;149.120;2023-03-25T21:13:40;15.80;87.40
46123;DHT22;31856;-35.404;149.120;2023-03-25T21:16:11;15.80;87.30
46123;DHT22;31856;-35.404;149.120;2023-03-25T21:18:42;15.80;87.20
46123;DHT22;31856;-35.404;149.120;2023-03-25T21:21:12;15.80;87.30
46123;DHT22;31856;-35.404;149.120;2023-03-25T21:23:44;15.90;87.60
46123;DHT22;31856;-35.404;149.120;2023-03-25T21:26:13;15.90;87.60
46123;DHT22;31856;-35.404;149.120;2023-03-25T21:28:45;15.80;87.30
46123;DHT22;31856;-35.404;149.120;2023-03-25T21:31:17;15.90;87.20
46123;DHT22;31856;-35.404;149.120;2023-03-25T21:33:49;15.90;86.90
46123;DHT22;31856;-35.404;149.120;2023-03-25T21:36:21;16.00;86.80
46123;DHT22;31856;-35.404;149.120;2023-03-25T21:38:55;16.00;86.60
46123;DHT22;31856;-35.404;149.120;2023-03-25T21:41:26;16.10;86.40
46123;DHT22;31856;-35.404;149.120;2023-03-25T21:43:56;16.00;85.90
46123;DHT22;31856;-35.404;149.120;2023-03-25T21:46:26;16.20;85.70
46123;DHT22;31856;-35.404;149.120;2023-03-25T21:48:55;16.20;85.10
46123;DHT22;31856;-35.404;149.120;2023-03-25T21:51:28;16.30;84.80
46123;DHT22;31856;-35.404;149.120;2023-03-25T21:53:58;16.40;84.80
46123;DHT22;31856;-35.404;149.120;2023-03-25T21:56:27;16.50;84.60
46123;DHT22;31856;-35.404;149.120;2023-03-25T21:59:02;16.60;84.00
46123;DHT22;31856;-35.404;149.120;2023-03-25T22:01:33;16.60;83.60
46123;DHT22;31856;-35.404;149.120;2023-03-25T22:04:03;16.70;82.90
46123;DHT22;31856;-35.404;149.120;2023-03-25T22:06:33;16.80;82.70
46123;DHT22;31856;-35.404;149.120;2023-03-25T22:09:05;16.80;82.30
46123;DHT22;31856;-35.404;149.120;2023-03-25T22:11:36;16.80;82.40
46123;DHT22;31856;-35.404;149.120;2023-03-25T22:14:06;16.80;82.30
46123;DHT22;31856;-35.404;149.120;2023-03-25T22:16:37;17.00;82.20
46123;DHT22;31856;-35.404;149.120;2023-03-25T22:19:07;17.00;81.90
46123;DHT22;31856;-35.404;149.120;2023-03-25T22:21:36;17.00;82.10
46123;DHT22;31856;-35.404;149.120;2023-03-25T22:24:06;17.00;81.70
46123;DHT22;31856;-35.404;149.120;2023-03-25T22:26:36;17.10;81.10
46123;DHT22;31856;-35.404;149.120;2023-03-25T22:29:10;17.10;80.70
46123;DHT22;31856;-35.404;149.120;2023-03-25T22:31:40;17.10;81.00
46123;DHT22;31856;-35.404;149.120;2023-03-25T22:42:03;17.10;81.10
46123;DHT22;31856;-35.404;149.120;2023-03-25T22:44:32;17.00;80.20
46123;DHT22;31856;-35.404;149.120;2023-03-25T22:47:01;17.00;80.60
46123;DHT22;31856;-35.404;149.120;2023-03-25T22:49:31;17.00;81.10
46123;DHT22;31856;-35.404;149.120;2023-03-25T22:52:00;17.00;81.20
46123;DHT22;31856;-35.404;149.120;2023-03-25T22:54:30;17.10;81.10
46123;DHT22;31856;-35.404;149.120;2023-03-25T22:57:00;17.00;80.60
46123;DHT22;31856;-35.404;149.120;2023-03-25T22:59:29;17.10;80.00
46123;DHT22;31856;-35.404;149.120;2023-03-25T23:01:59;17.00;79.50
46123;DHT22;31856;-35.404;149.120;2023-03-25T23:04:28;17.10;80.50
46123;DHT22;31856;-35.404;149.120;2023-03-25T23:06:58;17.10;80.50
46123;DHT22;31856;-35.404;149.120;2023-03-25T23:09:34;17.10;80.80
46123;DHT22;31856;-35.404;149.120;2023-03-25T23:12:10;17.10;80.80
46123;DHT22;31856;-35.404;149.120;2023-03-25T23:14:42;17.20;81.10
46123;DHT22;31856;-35.404;149.120;2023-03-25T23:17:15;17.20;80.40
46123;DHT22;31856;-35.404;149.120;2023-03-25T23:19:46;17.20;80.30
46123;DHT22;31856;-35.404;149.120;2023-03-25T23:22:15;17.20;79.90
46123;DHT22;31856;-35.404;149.120;2023-03-25T23:24:45;17.30;79.40
46123;DHT22;31856;-35.404;149.120;2023-03-25T23:27:14;17.30;79.20
46123;DHT22;31856;-35.404;149.120;2023-03-25T23:29:44;17.40;79.20
46123;DHT22;31856;-35.404;149.120;2023-03-25T23:32:13;17.50;79.80
46123;DHT22;31856;-35.404;149.120;2023-03-25T23:34:45;17.60;79.60
46123;DHT22;31856;-35.404;149.120;2023-03-25T23:37:14;17.60;79.10
